Time;durP1;ratioP1;P1;durP2;ratioP2;P2;SDS_P1;SDS_P2;PMS_P1;PMS_P2;Temp;Humidity;BMP_temperature;BMP_pressure;BME280_temperature;BME280_humidity;BME280_pressure;Samples;Min_cycle;Max_cycle;Signal;HPM_P1;HPM_P2
2023/09/05 00:00:26;;;;;;;3.95;1.90;;;22.20;51.30;;;;;;5026430;28;20065;-49
2023/09/05 00:02:53;;;;;;;5.30;2.35;;;22.20;51.20;;;;;;5026002;28;20042;-50
2023/09/05 00:05:21;;;;;;;2.60;2.22;;;22.20;51.40;;;;;;5029894;28;20056;-49
2023/09/05 00:07:50;;;;;;;2.83;1.77;;;22.20;51.80;;;;;;5028772;28;20470;-49
2023/09/05 00:10:16;;;;;;;4.32;2.00;;;22.20;51.50;;;;;;5024814;28;20041;-48
2023/09/05 00:12:44;;;;;;;3.65;2.38;;;22.20;50.90;;;;;;5028457;28;20077;-51
2023/09/05 00:15:13;;;;;;;6.57;2.55;;;22.20;51.00;;;;;;5028332;28;20073;-48
2023/09/05 00:17:43;;;;;;;2.72;1.85;;;22.20;51.30;;;;;;5025551;28;20042;-51
2023/09/05 00:20:14;;;;;;;7.80;1.90;;;22.30;50.80;;;;;;5023781;28;20054;-48
2023/09/05 00:22:45;;;;;;;4.47;1.83;;;22.30;50.70;;;;;;5024750;28;20045;-48
2023/09/05 00:25:19;;;;;;;3.90;1.98;;;22.30;50.80;;;;;;5029814;28;20099;-50
2023/09/05 00:27:47;;;;;;;5.03;1.85;;;22.30;50.40;;;;;;5026474;28;20074;-50
2023/09/05 00:30:16;;;;;;;2.78;1.85;;;22.30;50.40;;;;;;5025964;28;20069;-52
2023/09/05 00:32:46;;;;;;;6.38;1.90;;;22.30;50.40;;;;;;5026832;28;20053;-50
2023/09/05 00:35:18;;;;;;;4.03;1.83;;;22.40;50.20;;;;;;5026935;28;20045;-48
2023/09/05 00:37:49;;;;;;;3.50;2.00;;;22.40;50.30;;;;;;5024943;28;20127;-51
2023/09/05 00:40:19;;;;;;;5.22;1.98;;;22.40;50.10;;;;;;5026780;28;20389;-49
2023/09/05 00:42:52;;;;;;;2.55;1.92;;;22.40;50.00;;;;;;5028024;28;20050;-50
2023/09/05 00:45:19;;;;;;;4.70;2.17;;;22.40;50.20;;;;;;5029537;28;20107;-51
2023/09/05 00:47:47;;;;;;;2.00;1.60;;;22.40;50.70;;;;;;5022598;28;20099;-52
2023/09/05 00:50:18;;;;;;;2.90;1.90;;;22.40;50.30;;;;;;5026828;28;20490;-48
2023/09/05 00:52:45;;;;;;;2.53;1.40;;;22.40;49.90;;;;;;5026899;28;20049;-54
2023/09/05 00:55:15;;;;;;;2.60;1.75;;;22.50;50.20;;;;;;5026682;28;20569;-49
2023/09/05 00:57:45;;;;;;;3.85;1.60;;;22.40;50.00;;;;;;5025697;28;20060;-54
2023/09/05 01:00:17;;;;;;;2.63;1.77;;;22.50;50.10;;;;;;5027303;28;20522;-48
2023/09/05 01:02:46;;;;;;;5.10;1.75;;;22.50;50.00;;;;;;5031269;28;20129;-50
2023/09/05 01:05:13;;;;;;;4.28;1.65;;;22.40;50.10;;;;;;5031569;28;20056;-49
2023/09/05 01:07:59;;;;;;;1.85;1.70;;;22.50;50.50;;;;;;5031113;28;20045;-51
2023/09/05 01:10:46;;;;;;;2.22;1.70;;;22.50;51.20;;;;;;5029424;28;20049;-52
2023/09/05 01:13:17;;;;;;;2.17;1.45;;;22.50;50.40;;;;;;5030276;28;20037;-50
2023/09/05 01:15:46;;;;;;;3.67;1.80;;;22.40;50.20;;;;;;5032507;28;20092;-50
2023/09/05 01:18:14;;;;;;;2.33;1.63;;;22.40;50.30;;;;;;5025349;28;20399;-49
2023/09/05 01:21:05;;;;;;;2.78;1.88;;;22.40;50.80;;;;;;5029851;28;20091;-49
2023/09/05 01:23:42;;;;;;;2.85;1.80;;;22.40;51.30;;;;;;5025423;28;20041;-48
2023/09/05 01:26:12;;;;;;;1.65;1.55;;;22.40;50.70;;;;;;5029192;28;20077;-49
2023/09/05 01:28:43;;;;;;;3.17;1.75;;;22.30;51.50;;;;;;5028765;28;20629;-48
2023/09/05 01:31:24;;;;;;;2.08;1.52;;;22.30;51.80;;;;;;5029952;28;20618;-51
2023/09/05 01:33:52;;;;;;;;;;;22.30;52.20;;;;;;5030659;28;20130;-48
2023/09/05 01:36:19;;;;;;;2.30;2.08;;;22.30;51.40;;;;;;5029421;28;20014;-49
2023/09/05 01:38:48;;;;;;;1.95;1.75;;;22.20;52.00;;;;;;5039786;28;20053;-52
2023/09/05 01:41:15;;;;;;;2.40;1.83;;;22.10;52.60;;;;;;5029064;28;20079;-50
2023/09/05 01:43:42;;;;;;;2.47;2.03;;;22.10;52.70;;;;;;5029793;28;20065;-50
2023/09/05 01:46:12;;;;;;;2.40;1.65;;;22.00;52.70;;;;;;5028688;28;20041;-51
2023/09/05 01:48:39;;;;;;;2.10;1.90;;;21.90;53.20;;;;;;5031035;28;20049;-48
2023/09/05 01:51:09;;;;;;;2.42;2.22;;;21.80;53.20;;;;;;5031364;28;20598;-51
2023/09/05 01:53:38;;;;;;;3.10;1.95;;;21.70;53.40;;;;;;5029392;28;20111;-49
2023/09/05 01:56:07;;;;;;;3.90;1.60;;;21.60;53.60;;;;;;5029092;28;20037;-53
2023/09/05 01:58:34;;;;;;;2.05;1.80;;;21.60;53.80;;;;;;5022497;28;20044;-49
2023/09/05 02:01:03;;;;;;;3.15;2.05;;;21.50;54.00;;;;;;5029646;28;20103;-49
2023/09/05 02:03:29;;;;;;;2.85;1.88;;;21.50;54.20;;;;;;5030576;28;20073;-49
2023/09/05 02:05:59;;;;;;;3.10;1.88;;;21.40;54.50;;;;;;5030888;28;20128;-51
2023/09/05 02:08:26;;;;;;;2.25;1.73;;;21.30;54.70;;;;;;5025780;28;20116;-50
2023/09/05 02:10:53;;;;;;;2.40;1.63;;;21.30;54.80;;;;;;5030345;28;20107;-52
2023/09/05 02:13:25;;;;;;;2.13;1.75;;;21.20;54.90;;;;;;5028803;28;20052;-48
2023/09/05 02:15:53;;;;;;;3.72;1.90;;;21.10;55.30;;;;;;5029875;28;20443;-48
2023/09/05 02:18:19;;;;;;;2.70;1.85;;;21.10;55.20;;;;;;5026909;28;20049;-50
2023/09/05 02:20:46;;;;;;;2.50;2.10;;;21.00;55.40;;;;;;5028449;28;20099;-49
2023/09/05 02:23:13;;;;;;;2.78;2.15;;;21.00;55.50;;;;;;5029862;28;20038;-50
2023/09/05 02:25:39;;;;;;;1.58;1.48;;;20.90;55.60;;;;;;5030918;28;20755;-49
2023/09/05 02:28:06;;;;;;;1.90;1.58;;;20.80;55.80;;;;;;5027785;28;20099;-49
2023/09/05 02:30:42;;;;;;;2.03;1.60;;;20.80;55.90;;;;;;5026607;28;20060;-47
2023/09/05 02:33:09;;;;;;;2.33;1.48;;;20.70;56.20;;;;;;5028515;28;20259;-49
2023/09/05 02:35:45;;;;;;;2.10;1.50;;;20.60;56.20;;;;;;5023678;28;20037;-49
2023/09/05 02:38:14;;;;;;;1.77;1.60;;;20.60;57.00;;;;;;5027928;28;20538;-49
2023/09/05 02:40:47;;;;;;;2.00;1.90;;;20.50;56.40;;;;;;5028955;28;20517;-49
2023/09/05 02:43:14;;;;;;;3.15;1.80;;;20.40;56.70;;;;;;5026304;28;20037;-50
2023/09/05 02:45:50;;;;;;;2.80;1.80;;;20.40;56.70;;;;;;5028867;28;20045;-51
2023/09/05 02:48:22;;;;;;;2.72;1.50;;;20.40;57.40;;;;;;5025272;28;20065;-50
2023/09/05 02:50:58;;;;;;;1.70;1.55;;;20.30;57.00;;;;;;5029449;28;20096;-52
2023/09/05 02:53:26;;;;;;;3.25;2.03;;;20.20;57.10;;;;;;5029329;28;20037;-48
2023/09/05 02:55:53;;;;;;;2.38;1.88;;;20.20;57.30;;;;;;5027161;28;20544;-49
2023/09/05 02:58:20;;;;;;;2.05;1.83;;;20.10;57.40;;;;;;5027605;28;20103;-54
2023/09/05 03:00:49;;;;;;;2.58;1.77;;;20.10;57.60;;;;;;5041989;28;20088;-50
2023/09/05 03:03:18;;;;;;;1.55;1.40;;;20.00;57.70;;;;;;5027682;28;20500;-49
2023/09/05 03:05:46;;;;;;;2.63;1.88;;;19.90;57.70;;;;;;5028066;28;20046;-53
2023/09/05 03:08:12;;;;;;;3.42;1.92;;;19.90;58.00;;;;;;5024192;28;20048;-49
2023/09/05 03:10:39;;;;;;;2.15;1.90;;;19.90;58.10;;;;;;5026455;28;20052;-49
2023/09/05 03:13:06;;;;;;;2.20;1.85;;;19.80;58.20;;;;;;5029154;28;20041;-48
2023/09/05 03:15:34;;;;;;;2.00;1.83;;;19.80;58.30;;;;;;5028603;28;20543;-48
2023/09/05 03:18:04;;;;;;;4.00;1.80;;;19.70;58.40;;;;;;5024718;28;20389;-49
2023/09/05 03:20:38;;;;;;;3.85;2.03;;;19.70;58.50;;;;;;5025959;28;20092;-48
2023/09/05 03:23:05;;;;;;;2.20;2.05;;;19.70;58.70;;;;;;5027508;28;21214;-51
2023/09/05 03:25:32;;;;;;;3.50;2.17;;;19.60;58.40;;;;;;5030045;28;20598;-48
2023/09/05 03:28:01;;;;;;;2.08;1.88;;;19.60;58.70;;;;;;5026125;28;20073;-50
2023/09/05 03:30:29;;;;;;;4.28;2.10;;;19.60;58.80;;;;;;5023393;28;20068;-51
2023/09/05 03:32:59;;;;;;;2.33;2.05;;;19.50;58.90;;;;;;5027526;28;20056;-51
2023/09/05 03:35:30;;;;;;;2.33;1.90;;;19.50;58.90;;;;;;5029760;28;20063;-48
2023/09/05 03:38:00;;;;;;;3.58;2.10;;;19.40;59.50;;;;;;5027591;28;20069;-50
2023/09/05 03:40:31;;;;;;;3.35;2.17;;;19.40;58.90;;;;;;5026604;28;20076;-51
2023/09/05 03:42:58;;;;;;;3.03;2.00;;;19.40;59.20;;;;;;5031630;23;20074;-52
2023/09/05 03:45:27;;;;;;;2.40;1.90;;;19.30;59.10;;;;;;4988996;28;20470;-47
2023/09/05 03:47:56;;;;;;;4.47;2.40;;;19.30;59.30;;;;;;4989099;28;20117;-46
2023/09/05 03:50:28;;;;;;;2.50;1.98;;;19.30;59.40;;;;;;4987738;28;20047;-48
2023/09/05 03:52:57;;;;;;;2.63;2.00;;;19.20;60.00;;;;;;4989075;28;20097;-47
2023/09/05 03:55:24;;;;;;;3.17;1.98;;;19.20;59.50;;;;;;4988813;28;20039;-47
2023/09/05 03:57:51;;;;;;;4.15;1.98;;;19.20;59.60;;;;;;4987753;28;20047;-48
2023/09/05 04:00:19;;;;;;;2.10;1.90;;;19.10;59.50;;;;;;4985683;28;20041;-51
2023/09/05 04:02:48;;;;;;;3.08;2.38;;;19.10;59.60;;;;;;4988471;28;20042;-47
2023/09/05 04:05:17;;;;;;;7.03;2.65;;;19.10;59.60;;;;;;4989390;28;20046;-47
2023/09/05 04:07:44;;;;;;;3.38;2.10;;;19.00;59.60;;;;;;4986249;28;20097;-47
2023/09/05 04:10:11;;;;;;;3.33;1.85;;;19.00;59.60;;;;;;4987192;28;20039;-47
2023/09/05 04:12:37;;;;;;;2.78;1.83;;;19.00;59.80;;;;;;4988893;28;20085;-47
2023/09/05 04:15:05;;;;;;;2.90;2.08;;;18.90;59.90;;;;;;4990244;28;20441;-48
2023/09/05 04:17:32;;;;;;;2.58;2.38;;;18.90;59.90;;;;;;4984221;28;20046;-48
2023/09/05 04:19:59;;;;;;;2.55;1.75;;;18.90;60.00;;;;;;4985819;28;20031;-50
2023/09/05 04:22:29;;;;;;;2.13;1.92;;;18.80;59.90;;;;;;4987154;28;20104;-48
2023/09/05 04:24:57;;;;;;;1.95;1.75;;;18.80;60.00;;;;;;4990085;28;20511;-48
2023/09/05 04:27:24;;;;;;;2.78;2.10;;;18.80;60.10;;;;;;4987428;28;20049;-48
2023/09/05 04:29:54;;;;;;;2.80;2.28;;;18.70;60.10;;;;;;4981018;28;20054;-49
2023/09/05 04:32:32;;;;;;;1.80;1.58;;;18.70;60.30;;;;;;4988997;28;20047;-47
2023/09/05 04:35:04;;;;;;;2.45;1.90;;;18.70;60.30;;;;;;4990116;28;20050;-48
2023/09/05 04:37:33;;;;;;;2.85;2.10;;;18.70;60.60;;;;;;4991163;28;20089;-48
2023/09/05 04:40:03;;;;;;;2.60;2.00;;;18.60;60.40;;;;;;4989149;28;20034;-47
2023/09/05 04:42:30;;;;;;;2.42;2.10;;;18.60;60.60;;;;;;4990849;28;20046;-47
2023/09/05 04:44:56;;;;;;;1.98;1.88;;;18.60;60.70;;;;;;4992209;28;20046;-47
2023/09/05 04:47:28;;;;;;;2.55;2.35;;;18.50;60.70;;;;;;4989798;28;20060;-48
2023/09/05 04:50:02;;;;;;;2.70;2.20;;;18.50;61.00;;;;;;4990850;28;20056;-49
2023/09/05 04:52:31;;;;;;;2.35;2.10;;;18.50;60.90;;;;;;4992173;28;20046;-48
2023/09/05 04:55:06;;;;;;;3.33;2.17;;;18.50;60.70;;;;;;4986916;28;20058;-48
2023/09/05 04:57:32;;;;;;;2.83;2.00;;;18.40;61.20;;;;;;4985093;28;20101;-48
2023/09/05 04:59:59;;;;;;;2.45;2.03;;;18.40;60.90;;;;;;4987815;28;20121;-47
2023/09/05 05:02:31;;;;;;;2.45;2.20;;;18.40;60.90;;;;;;4990815;28;20073;-50
2023/09/05 05:04:58;;;;;;;2.20;2.00;;;18.40;61.10;;;;;;4991264;28;20042;-50
2023/09/05 05:07:32;;;;;;;2.67;2.35;;;18.40;61.10;;;;;;4990594;28;20066;-47
2023/09/05 05:09:59;;;;;;;3.47;2.30;;;18.30;61.20;;;;;;4990912;28;20077;-47
2023/09/05 05:12:27;;;;;;;3.13;2.15;;;18.30;61.10;;;;;;4991677;28;20050;-48
2023/09/05 05:14:53;;;;;;;3.05;1.80;;;18.30;61.30;;;;;;4990661;28;20500;-48
2023/09/05 05:17:20;;;;;;;2.42;2.10;;;18.30;61.40;;;;;;4987025;28;20069;-48
2023/09/05 05:20:00;;;;;;;2.30;2.05;;;18.30;61.40;;;;;;4987085;28;20045;-49
2023/09/05 05:22:28;;;;;;;1.90;1.80;;;18.20;61.30;;;;;;4990884;28;20073;-49
2023/09/05 05:24:57;;;;;;;2.08;1.88;;;18.30;61.50;;;;;;4989465;28;20042;-49
2023/09/05 05:27:23;;;;;;;2.95;2.38;;;18.20;61.60;;;;;;4989064;28;20060;-48
2023/09/05 05:29:54;;;;;;;2.65;2.45;;;18.20;61.70;;;;;;4988951;28;20041;-48
2023/09/05 05:32:21;;;;;;;2.60;1.90;;;18.20;62.00;;;;;;4993660;28;20050;-50
2023/09/05 05:34:49;;;;;;;2.97;2.60;;;18.20;61.90;;;;;;4990570;28;20050;-49
2023/09/05 05:37:16;;;;;;;1.85;1.70;;;18.30;62.00;;;;;;4988631;28;20576;-49
2023/09/05 05:39:43;;;;;;;2.65;2.05;;;18.20;62.20;;;;;;4991135;28;20089;-47
2023/09/05 05:42:12;;;;;;;2.83;2.03;;;18.20;62.20;;;;;;4985520;28;20042;-48
2023/09/05 05:44:39;;;;;;;3.47;2.00;;;18.20;62.30;;;;;;4990626;28;20048;-50
2023/09/05 05:47:09;;;;;;;4.97;2.53;;;18.30;62.50;;;;;;4988158;28;20089;-48
2023/09/05 05:49:35;;;;;;;2.95;2.25;;;18.30;62.50;;;;;;5000566;28;20133;-48
2023/09/05 05:52:05;;;;;;;3.70;2.08;;;18.30;62.70;;;;;;4989531;28;20413;-48
2023/09/05 05:54:32;;;;;;;4.38;2.20;;;18.30;62.80;;;;;;4990340;28;20133;-50
2023/09/05 05:57:02;;;;;;;3.10;2.47;;;18.40;62.90;;;;;;4990412;28;20453;-49
2023/09/05 05:59:29;;;;;;;2.67;2.42;;;18.40;63.40;;;;;;4984446;28;20113;-49
2023/09/05 06:01:56;;;;;;;3.88;2.78;;;18.40;63.20;;;;;;4990166;28;20042;-50
2023/09/05 06:04:24;;;;;;;2.65;2.10;;;18.40;63.30;;;;;;4990523;28;20048;-49
2023/09/05 06:06:51;;;;;;;2.88;2.33;;;18.50;63.50;;;;;;4989993;28;20137;-51
2023/09/05 06:09:18;;;;;;;3.53;2.25;;;18.50;63.50;;;;;;4988158;28;20504;-48
2023/09/05 06:11:48;;;;;;;2.15;1.98;;;18.50;63.60;;;;;;4990428;28;20547;-47
2023/09/05 06:14:15;;;;;;;2.28;2.08;;;18.60;63.70;;;;;;4990045;28;20085;-48
2023/09/05 06:16:54;;;;;;;3.65;2.25;;;18.60;63.80;;;;;;4989626;28;20133;-48
2023/09/05 06:19:21;;;;;;;2.30;2.00;;;18.60;64.10;;;;;;4985302;28;20659;-48
2023/09/05 06:21:48;;;;;;;3.70;2.22;;;18.70;64.00;;;;;;4989821;28;20104;-50
2023/09/05 06:24:16;;;;;;;4.50;2.40;;;18.70;64.10;;;;;;4987712;28;20069;-49
2023/09/05 06:26:45;;;;;;;2.42;2.22;;;18.70;64.30;;;;;;4987496;28;20097;-47
2023/09/05 06:29:14;;;;;;;5.82;2.30;;;18.80;64.40;;;;;;4997114;28;20049;-47
2023/09/05 06:31:48;;;;;;;2.40;1.98;;;18.80;64.40;;;;;;4983378;28;20125;-47
2023/09/05 06:34:16;;;;;;;2.60;2.40;;;18.80;64.60;;;;;;4987433;28;20050;-50
2023/09/05 06:36:51;;;;;;;2.65;2.30;;;18.90;64.70;;;;;;4990464;28;20093;-48
2023/09/05 06:39:28;;;;;;;3.67;2.65;;;18.90;64.80;;;;;;4991901;28;20104;-48
2023/09/05 06:42:04;;;;;;;4.05;2.45;;;19.00;65.10;;;;;;4987087;28;20038;-48
2023/09/05 06:44:36;;;;;;;3.13;2.08;;;19.10;65.50;;;;;;4990168;28;20038;-49
2023/09/05 06:47:05;;;;;;;3.15;2.28;;;19.10;65.20;;;;;;4986935;28;20038;-48
2023/09/05 06:49:33;;;;;;;2.40;2.08;;;19.20;65.20;;;;;;4987276;28;20528;-52
2023/09/05 06:52:01;;;;;;;6.70;3.08;;;19.20;65.30;;;;;;4988666;28;20078;-47
2023/09/05 06:54:29;;;;;;;3.05;2.15;;;19.30;65.40;;;;;;4989537;28;20052;-50
2023/09/05 06:56:58;;;;;;;3.60;2.35;;;19.40;65.20;;;;;;4989675;28;20074;-52
2023/09/05 06:59:25;;;;;;;3.78;2.25;;;19.50;65.50;;;;;;4981549;28;20076;-51
2023/09/05 07:01:54;;;;;;;3.75;2.15;;;19.50;65.20;;;;;;4989027;28;20077;-51
2023/09/05 07:04:21;;;;;;;2.53;2.33;;;19.60;65.10;;;;;;4989691;28;20401;-50
2023/09/05 07:06:48;;;;;;;3.70;2.03;;;19.70;65.10;;;;;;4989941;28;20129;-48
2023/09/05 07:09:17;;;;;;;2.22;2.00;;;19.80;64.50;;;;;;4987492;28;20485;-49
2023/09/05 07:11:46;;;;;;;2.38;1.77;;;19.80;64.40;;;;;;4989950;28;20624;-51
2023/09/05 07:14:13;;;;;;;3.50;2.20;;;19.90;64.40;;;;;;4989724;28;20122;-50
2023/09/05 07:16:40;;;;;;;2.72;2.25;;;20.00;64.30;;;;;;4989727;28;20129;-48
2023/09/05 07:19:09;;;;;;;2.30;2.10;;;20.10;64.20;;;;;;4983060;28;20069;-52
2023/09/05 07:21:40;;;;;;;2.80;2.40;;;20.10;64.00;;;;;;4989609;28;20508;-51
2023/09/05 07:24:10;;;;;;;3.83;2.30;;;20.20;64.20;;;;;;4989234;28;20046;-51
2023/09/05 07:26:38;;;;;;;2.67;2.10;;;20.30;63.30;;;;;;4989412;28;20137;-53
2023/09/05 07:29:11;;;;;;;3.33;2.67;;;20.40;63.30;;;;;;4985374;28;20066;-52
2023/09/05 07:31:41;;;;;;;5.10;2.78;;;20.50;63.40;;;;;;4987521;28;20046;-52
2023/09/05 07:34:08;;;;;;;2.60;2.22;;;20.50;63.00;;;;;;4988834;28;20038;-49
2023/09/05 07:36:40;;;;;;;4.03;2.10;;;20.70;63.00;;;;;;4989867;28;20142;-52
2023/09/05 07:39:15;;;;;;;2.97;2.40;;;20.80;62.30;;;;;;4983895;28;20057;-53
2023/09/05 07:41:42;;;;;;;2.85;2.05;;;20.90;62.40;;;;;;4989651;28;20523;-50
2023/09/05 07:44:08;;;;;;;3.50;2.10;;;20.90;62.00;;;;;;4989275;28;20044;-52
2023/09/05 07:46:40;;;;;;;4.07;2.53;;;21.00;61.70;;;;;;4989695;28;20044;-52
2023/09/05 07:49:06;;;;;;;2.92;2.45;;;21.00;61.40;;;;;;4984029;28;20049;-51
2023/09/05 07:51:36;;;;;;;3.70;2.25;;;21.20;61.30;;;;;;4989357;28;20501;-50
2023/09/05 07:54:10;;;;;;;2.38;2.10;;;21.30;61.20;;;;;;4989417;28;20050;-49
2023/09/05 07:56:42;;;;;;;3.03;2.28;;;21.40;61.10;;;;;;4986873;28;20515;-51
2023/09/05 07:59:08;;;;;;;2.97;2.25;;;21.50;60.60;;;;;;4987101;28;20034;-51
2023/09/05 08:01:38;;;;;;;3.83;1.95;;;21.60;60.50;;;;;;4985920;28;20042;-50
2023/09/05 08:04:07;;;;;;;2.50;2.08;;;21.70;60.20;;;;;;4988131;28;20031;-52
2023/09/05 08:06:35;;;;;;;3.20;2.38;;;21.70;59.90;;;;;;4989562;28;20397;-52
2023/09/05 08:09:03;;;;;;;2.17;1.98;;;21.80;59.80;;;;;;4984124;28;20517;-51
2023/09/05 08:11:30;;;;;;;2.30;2.10;;;21.90;59.70;;;;;;4993197;28;20042;-49
2023/09/05 08:13:59;;;;;;;2.90;2.13;;;22.00;59.70;;;;;;4992437;28;20046;-53
2023/09/05 08:16:28;;;;;;;2.22;2.03;;;22.10;59.50;;;;;;4992112;28;20049;-48
2023/09/05 08:18:56;;;;;;;3.28;2.13;;;22.10;59.00;;;;;;4988467;28;20624;-49
2023/09/05 08:21:30;;;;;;;2.20;2.00;;;22.20;58.90;;;;;;4993298;28;20121;-49
2023/09/05 08:23:59;;;;;;;4.90;2.28;;;22.30;58.50;;;;;;4987768;28;20051;-49
2023/09/05 08:26:25;;;;;;;2.90;1.92;;;22.40;58.90;;;;;;4992963;28;20085;-52
2023/09/05 08:28:52;;;;;;;4.95;1.95;;;22.40;58.90;;;;;;4990572;28;20457;-51
2023/09/05 08:31:21;;;;;;;3.70;2.55;;;22.50;58.30;;;;;;4989190;28;20424;-52
2023/09/05 08:33:48;;;;;;;2.53;2.00;;;22.50;58.30;;;;;;4991919;28;20575;-49
2023/09/05 08:36:18;;;;;;;2.60;2.15;;;22.60;57.90;;;;;;4992894;28;20061;-53
2023/09/05 08:38:44;;;;;;;5.38;2.88;;;22.70;58.00;;;;;;4987989;28;20052;-51
2023/09/05 08:41:11;;;;;;;2.75;1.88;;;22.80;57.90;;;;;;4992202;28;20062;-53
2023/09/05 08:43:43;;;;;;;2.83;2.00;;;22.80;57.50;;;;;;4992035;28;20547;-51
2023/09/05 08:46:14;;;;;;;3.40;1.90;;;22.80;57.80;;;;;;4988761;28;20422;-52
2023/09/05 08:48:41;;;;;;;4.22;2.30;;;22.90;58.40;;;;;;4992875;28;20053;-51
2023/09/05 08:51:22;;;;;;;3.83;1.88;;;23.00;57.90;;;;;;4986063;28;20046;-52
2023/09/05 08:53:58;;;;;;;3.72;2.15;;;23.10;57.80;;;;;;4989461;28;20074;-48
2023/09/05 08:56:26;;;;;;;2.35;1.92;;;23.20;57.50;;;;;;4990763;28;20064;-49
2023/09/05 08:59:05;;;;;;;3.45;2.45;;;23.30;57.30;;;;;;4990535;28;20065;-49
2023/09/05 09:01:32;;;;;;;3.42;2.10;;;23.30;57.10;;;;;;4989296;28;20408;-51
2023/09/05 09:04:02;;;;;;;6.13;1.77;;;23.40;57.00;;;;;;4991203;28;20050;-53
2023/09/05 09:06:34;;;;;;;4.43;1.83;;;23.40;57.00;;;;;;4992686;28;20117;-52
2023/09/05 09:09:03;;;;;;;3.53;1.95;;;23.50;56.40;;;;;;4988728;28;20051;-52
2023/09/05 09:11:34;;;;;;;4.03;2.00;;;23.60;56.40;;;;;;4992371;28;20423;-48
2023/09/05 09:14:01;;;;;;;5.60;1.73;;;23.60;56.10;;;;;;4991507;28;20038;-51
2023/09/05 09:16:40;;;;;;;4.75;2.13;;;23.70;56.40;;;;;;4989062;28;20046;-50
2023/09/05 09:19:13;;;;;;;3.72;2.20;;;23.80;56.10;;;;;;4992114;28;20065;-50
2023/09/05 09:21:42;;;;;;;4.65;2.20;;;23.90;55.70;;;;;;4991128;28;20126;-49
2023/09/05 09:24:12;;;;;;;2.30;2.10;;;23.90;55.50;;;;;;4987404;28;20046;-51
2023/09/05 09:26:39;;;;;;;3.85;1.92;;;24.00;55.40;;;;;;4992257;28;20575;-52
2023/09/05 09:29:10;;;;;;;3.17;1.95;;;24.00;55.10;;;;;;4989886;28;20046;-52
2023/09/05 09:31:37;;;;;;;3.58;2.30;;;24.10;55.00;;;;;;4991944;28;20042;-52
2023/09/05 09:34:06;;;;;;;7.18;2.30;;;24.10;54.40;;;;;;4990905;28;20125;-52
2023/09/05 09:36:38;;;;;;;3.13;1.63;;;24.20;55.00;;;;;;4990216;28;20398;-50
2023/09/05 09:39:11;;;;;;;2.65;1.50;;;24.30;55.40;;;;;;4992070;28;20045;-48
2023/09/05 09:41:44;;;;;;;2.00;1.63;;;24.30;55.00;;;;;;4989977;28;20640;-53
2023/09/05 09:44:25;;;;;;;3.97;1.83;;;24.50;54.80;;;;;;4990375;28;20038;-51
2023/09/05 09:46:59;;;;;;;3.90;1.90;;;24.50;55.10;;;;;;4988904;28;20040;-51
2023/09/05 09:49:28;;;;;;;4.07;1.70;;;24.50;54.80;;;;;;4991902;28;20089;-50
2023/09/05 09:51:56;;;;;;;3.13;2.10;;;24.60;54.80;;;;;;4991078;28;20140;-51
2023/09/05 09:54:31;;;;;;;3.67;2.00;;;24.70;54.10;;;;;;4989166;28;20517;-50
2023/09/05 09:57:00;;;;;;;4.88;1.90;;;24.70;54.20;;;;;;4991495;28;20049;-50
2023/09/05 09:59:36;;;;;;;4.22;1.85;;;24.80;54.20;;;;;;4989387;28;20108;-52
2023/09/05 10:02:09;;;;;;;3.22;1.95;;;24.90;54.10;;;;;;5004426;28;20521;-51
2023/09/05 10:04:46;;;;;;;3.53;2.03;;;25.00;53.50;;;;;;4991666;28;20081;-52
2023/09/05 10:07:15;;;;;;;8.02;2.10;;;25.10;53.80;;;;;;4992019;28;20054;-51
2023/09/05 10:09:44;;;;;;;4.75;1.95;;;25.10;53.50;;;;;;4988868;28;20085;-50
2023/09/05 10:12:18;;;;;;;2.33;1.75;;;25.20;53.20;;;;;;4992180;28;20066;-50
2023/09/05 10:14:51;;;;;;;2.60;1.98;;;25.30;52.90;;;;;;4991315;28;20528;-49
2023/09/05 10:17:21;;;;;;;5.25;1.90;;;25.40;52.70;;;;;;4987768;28;20077;-51
2023/09/05 10:19:53;;;;;;;2.58;1.80;;;25.40;52.90;;;;;;4991529;28;20050;-52
2023/09/05 10:22:21;;;;;;;3.00;1.85;;;25.50;52.80;;;;;;4991519;28;20461;-51
2023/09/05 10:24:55;;;;;;;6.55;2.70;;;25.60;52.60;;;;;;4985072;28;20548;-50
2023/09/05 10:27:22;;;;;;;1.85;1.70;;;25.60;52.80;;;;;;4991817;28;20397;-53
2023/09/05 10:29:51;;;;;;;4.88;1.80;;;25.70;52.50;;;;;;4988925;28;20133;-54
2023/09/05 10:32:23;;;;;;;3.95;1.98;;;25.80;52.70;;;;;;4991151;28;20069;-51
2023/09/05 10:35:02;;;;;;;3.97;2.25;;;25.80;52.80;;;;;;4989770;28;20046;-52
2023/09/05 10:37:51;;;;;;;3.53;2.00;;;25.90;52.80;;;;;;4986334;28;20042;-50
2023/09/05 10:40:36;;;;;;;4.80;2.25;;;26.00;52.00;;;;;;4990683;28;20038;-49
2023/09/05 10:43:22;;;;;;;5.80;1.70;;;26.00;51.30;;;;;;4990961;28;20094;-49
2023/09/05 10:46:00;;;;;;;5.18;1.88;;;26.00;51.80;;;;;;4989490;28;20397;-50
2023/09/05 10:48:38;;;;;;;4.78;2.13;;;26.10;51.30;;;;;;4990004;28;20057;-52
2023/09/05 10:51:08;;;;;;;3.88;1.90;;;26.20;51.40;;;;;;4990768;28;20046;-53
2023/09/05 10:53:38;;;;;;;3.97;2.15;;;26.20;51.10;;;;;;4989323;28;20046;-53
2023/09/05 10:56:43;;;;;;;5.75;2.00;;;26.30;51.10;;;;;;4989949;28;20560;-48
2023/09/05 10:59:24;;;;;;;2.10;1.33;;;26.40;51.60;;;;;;4988520;28;20042;-53
2023/09/05 11:02:01;;;;;;;4.28;1.52;;;26.50;51.20;;;;;;4988925;28;20046;-49
2023/09/05 11:04:30;;;;;;;4.22;1.83;;;26.60;50.90;;;;;;4984947;28;20070;-49
2023/09/05 11:07:06;;;;;;;5.50;1.80;;;26.60;50.90;;;;;;4989181;28;20541;-51
2023/09/05 11:09:40;;;;;;;6.38;2.50;;;26.70;51.00;;;;;;4986354;28;20101;-50
2023/09/05 11:12:11;;;;;;;3.08;2.00;;;26.80;51.10;;;;;;4990905;28;20073;-51
2023/09/05 11:14:41;;;;;;;3.22;2.00;;;26.80;50.80;;;;;;4990613;28;20572;-53
2023/09/05 11:17:16;;;;;;;3.65;1.88;;;26.90;51.30;;;;;;4984764;28;20406;-52
2023/09/05 11:19:48;;;;;;;2.70;1.80;;;27.00;51.30;;;;;;4990077;28;20042;-51
2023/09/05 11:22:22;;;;;;;4.35;1.95;;;27.00;50.10;;;;;;4989580;28;20077;-48
2023/09/05 11:24:50;;;;;;;;;;;27.10;49.60;;;;;;4990684;28;20042;-51
2023/09/05 11:27:21;;;;;;;3.28;1.88;;;27.20;50.70;;;;;;4988260;28;19922;-49
2023/09/05 11:29:51;;;;;;;2.37;1.77;;;27.20;50.10;;;;;;4984865;28;20650;-49
2023/09/05 11:32:19;;;;;;;3.38;1.83;;;27.30;50.20;;;;;;4990521;28;20380;-53
2023/09/05 11:34:47;;;;;;;2.70;2.13;;;27.30;49.80;;;;;;4989829;28;20117;-53
2023/09/05 11:37:15;;;;;;;2.40;1.58;;;27.40;49.90;;;;;;4986353;28;20756;-52
2023/09/05 11:39:45;;;;;;;5.05;1.88;;;27.40;48.60;;;;;;4991154;28;20495;-53
2023/09/05 11:42:30;;;;;;;3.97;1.63;;;27.50;49.50;;;;;;4990041;28;20097;-52
2023/09/05 11:44:58;;;;;;;3.90;1.63;;;27.60;48.50;;;;;;4989406;28;20084;-51
2023/09/05 11:47:27;;;;;;;3.88;1.70;;;27.70;49.50;;;;;;4987167;28;20120;-51
2023/09/05 11:49:54;;;;;;;2.13;1.58;;;27.80;49.10;;;;;;4990177;28;20066;-50
2023/09/05 11:52:24;;;;;;;3.67;1.52;;;27.90;49.00;;;;;;4990068;28;20049;-52
2023/09/05 11:54:55;;;;;;;3.65;1.65;;;28.00;48.60;;;;;;4987220;28;20054;-51
2023/09/05 11:57:23;;;;;;;2.75;1.70;;;28.00;50.00;;;;;;4989922;28;20100;-51
2023/09/05 11:59:53;;;;;;;2.47;1.50;;;28.10;48.90;;;;;;4986676;28;20466;-53
2023/09/05 12:02:26;;;;;;;3.25;1.85;;;28.20;48.80;;;;;;4989467;28;20100;-52
2023/09/05 12:04:55;;;;;;;3.15;1.77;;;28.30;48.80;;;;;;4989417;28;20092;-50
2023/09/05 12:07:38;;;;;;;4.95;1.63;;;28.30;48.30;;;;;;4985203;28;20105;-50
2023/09/05 12:10:05;;;;;;;1.63;1.52;;;28.40;47.90;;;;;;4988750;28;20081;-52
2023/09/05 12:12:31;;;;;;;6.93;1.80;;;28.50;48.50;;;;;;4989074;28;20073;-49
2023/09/05 12:15:04;;;;;;;3.35;1.70;;;28.50;47.90;;;;;;4989243;28;20125;-52
2023/09/05 12:17:30;;;;;;;4.03;1.92;;;28.60;47.60;;;;;;4986927;28;20042;-53
2023/09/05 12:19:57;;;;;;;4.97;1.60;;;28.60;48.60;;;;;;4989263;28;20062;-49
2023/09/05 12:22:31;;;;;;;4.47;1.90;;;28.70;47.40;;;;;;4988965;28;20046;-49
2023/09/05 12:25:11;;;;;;;2.65;1.80;;;28.80;47.60;;;;;;4986665;28;20056;-51
2023/09/05 12:27:47;;;;;;;2.70;1.77;;;28.80;47.50;;;;;;4988585;28;20424;-54
2023/09/05 12:30:30;;;;;;;3.78;2.03;;;28.90;47.60;;;;;;4984358;28;20413;-49
2023/09/05 12:33:03;;;;;;;4.68;2.28;;;29.00;47.90;;;;;;4990734;28;20137;-53
2023/09/05 12:35:36;;;;;;;3.17;2.10;;;29.00;46.80;;;;;;4990571;28;20579;-51
2023/09/05 12:38:15;;;;;;;4.22;2.22;;;29.10;47.10;;;;;;4988219;28;20100;-50
2023/09/05 12:40:43;;;;;;;2.28;1.42;;;29.20;47.30;;;;;;4989730;28;20038;-50
2023/09/05 12:43:12;;;;;;;7.80;1.92;;;29.20;48.00;;;;;;4988910;28;20081;-53
2023/09/05 12:45:42;;;;;;;4.78;2.30;;;29.40;47.90;;;;;;4988686;28;20569;-49
2023/09/05 12:48:09;;;;;;;5.90;1.90;;;29.40;47.50;;;;;;4986781;28;20108;-51
2023/09/05 12:50:38;;;;;;;3.85;1.98;;;29.50;47.10;;;;;;4989767;28;20049;-52
2023/09/05 12:53:13;;;;;;;3.20;1.65;;;29.60;46.50;;;;;;4988117;28;20100;-52
2023/09/05 12:55:41;;;;;;;2.67;1.80;;;29.60;46.80;;;;;;4987986;28;20396;-51
2023/09/05 12:58:13;;;;;;;1.67;1.48;;;29.70;46.00;;;;;;4993892;28;20089;-50
2023/09/05 13:00:40;;;;;;;4.18;1.58;;;29.80;46.20;;;;;;4990290;28;20536;-52
2023/09/05 13:03:10;;;;;;;2.92;1.55;;;29.90;45.60;;;;;;4993624;28;20048;-51